createdAt,value
2022-12-27T00:02:20.264Z,101478.38
2022-12-27T00:04:47.971Z,101479.19
2022-12-27T00:07:15.914Z,101487.03
2022-12-27T00:09:42.481Z,101490.13
2022-12-27T00:12:08.891Z,101490.75
2022-12-27T00:14:35.421Z,101481.91
2022-12-27T00:17:01.734Z,101487.25
2022-12-27T00:19:28.499Z,101478.25
2022-12-27T00:21:54.980Z,101476.41
2022-12-27T00:24:21.614Z,101483.69
2022-12-27T00:26:47.991Z,101475.97
2022-12-27T00:29:14.401Z,101481.66
2022-12-27T00:31:40.738Z,101475.88
2022-12-27T00:34:07.737Z,101479.31
2022-12-27T00:36:35.113Z,101481.03
2022-12-27T00:39:02.257Z,101473.34
2022-12-27T00:41:28.891Z,101487.03
2022-12-27T00:43:55.524Z,101476.84
2022-12-27T00:46:22.138Z,101483.00
2022-12-27T00:48:48.457Z,101487.19
2022-12-27T00:51:20.283Z,101495.03
2022-12-27T00:53:47.708Z,101486.19
2022-12-27T00:56:20.924Z,101494.31
2022-12-27T00:58:47.552Z,101493.50
2022-12-27T01:01:20.605Z,101492.44
2022-12-27T01:03:47.357Z,101487.72
2022-12-27T01:06:17.258Z,101494.69
2022-12-27T01:08:46.592Z,101499.41
2022-12-27T01:11:14.077Z,101497.78
2022-12-27T01:13:41.080Z,101498.09
2022-12-27T01:16:16.180Z,101498.69
2022-12-27T01:18:43.092Z,101503.97
2022-12-27T01:21:13.145Z,101510.09
2022-12-27T01:23:40.663Z,101508.16
2022-12-27T01:26:12.522Z,101522.31
2022-12-27T01:28:39.139Z,101510.69
2022-12-27T01:31:11.473Z,101523.22
2022-12-27T01:33:38.124Z,101524.03
2022-12-27T01:36:19.863Z,101522.16
2022-12-27T01:38:48.120Z,101521.84
2022-12-27T01:41:45.367Z,101532.13
2022-12-27T01:44:43.799Z,101528.53
2022-12-27T01:47:35.031Z,101534.06
2022-12-27T01:50:22.843Z,101542.16
2022-12-27T01:53:02.754Z,101543.81
2022-12-27T01:55:35.171Z,101541.03
2022-12-27T01:58:39.299Z,101538.88
2022-12-27T02:01:09.331Z,101537.44
2022-12-27T02:03:45.291Z,101536.94
2022-12-27T02:06:13.887Z,101538.56
2022-12-27T02:08:58.038Z,101542.78
2022-12-27T02:11:51.434Z,101544.44
2022-12-27T02:14:32.260Z,101548.34
2022-12-27T02:17:05.278Z,101540.53
2022-12-27T02:19:40.782Z,101549.44
2022-12-27T02:23:03.449Z,101542.25
2022-12-27T02:25:42.380Z,101546.97
2022-12-27T02:28:19.857Z,101554.97
2022-12-27T02:30:49.449Z,101551.94
2022-12-27T02:33:24.659Z,101553.06
2022-12-27T02:35:57.306Z,101571.31
2022-12-27T02:38:31.330Z,101556.66
2022-12-27T02:41:21.268Z,101565.47
2022-12-27T02:44:06.445Z,101556.84
2022-12-27T02:46:51.606Z,101554.06
2022-12-27T02:49:54.383Z,101547.19
2022-12-27T02:53:08.124Z,101547.19
2022-12-27T02:56:18.224Z,101548.34
2022-12-27T02:59:22.433Z,101549.16
2022-12-27T03:02:13.791Z,101542.47
2022-12-27T03:04:55.424Z,101538.88
2022-12-27T03:07:27.947Z,101538.06
2022-12-27T03:10:42.641Z,101545.03
2022-12-27T03:13:27.458Z,101549.97
2022-12-27T03:16:05.731Z,101545.84
2022-12-27T03:18:41.675Z,101541.13
2022-12-27T03:21:27.810Z,101547.19
2022-12-27T03:24:15.288Z,101544.44
2022-12-27T03:26:46.339Z,101551.09
2022-12-27T03:29:34.738Z,101555.50
2022-12-27T03:32:24.929Z,101557.16
2022-12-27T03:34:56.491Z,101560.75
2022-12-27T03:37:47.887Z,101563.50
2022-12-27T03:40:30.757Z,101568.22
2022-12-27T03:43:12.465Z,101571.50
2022-12-27T03:46:11.954Z,101574.00
2022-12-27T03:48:53.875Z,101569.28
2022-12-27T03:51:23.637Z,101566.41
2022-12-27T03:53:54.976Z,101566.41
2022-12-27T03:56:21.795Z,101561.69
2022-12-27T03:58:48.334Z,101574.44
2022-12-27T04:01:15.133Z,101582.47
2022-12-27T04:03:41.745Z,101585.75
2022-12-27T04:06:08.145Z,101587.38
2022-12-27T04:08:53.305Z,101584.34
2022-12-27T04:11:38.527Z,101589.56
2022-12-27T04:14:23.672Z,101593.16
2022-12-27T04:17:08.697Z,101596.75
2022-12-27T04:19:53.884Z,101599.50
2022-12-27T04:22:39.064Z,101598.38
2022-12-27T04:25:24.225Z,101597.25
2022-12-27T04:28:09.392Z,101590.59
2022-12-27T04:30:54.589Z,101588.94
2022-12-27T04:33:39.618Z,101587.00
2022-12-27T04:36:06.811Z,101596.44
2022-12-27T04:38:33.336Z,101597.25
2022-12-27T04:41:19.843Z,101589.78
2022-12-27T04:44:04.942Z,101592.56
2022-12-27T04:46:50.101Z,101589.78
2022-12-27T04:49:41.711Z,101582.56
2022-12-27T04:52:32.293Z,101590.59
2022-12-27T04:55:01.027Z,101595.84
2022-12-27T04:57:28.009Z,101603.31
2022-12-27T05:00:12.880Z,101597.78
2022-12-27T05:02:40.247Z,101603.31
2022-12-27T05:05:07.866Z,101604.16
2022-12-27T05:07:53.001Z,101606.91
2022-12-27T05:10:38.029Z,101613.28
2022-12-27T05:13:23.013Z,101621.28
2022-12-27T05:15:49.999Z,101619.03
2022-12-27T05:18:16.590Z,101619.88
2022-12-27T05:20:43.145Z,101615.13
2022-12-27T05:23:28.053Z,101615.97
2022-12-27T05:25:54.423Z,101616.50
2022-12-27T05:28:20.875Z,101630.03
2022-12-27T05:30:47.427Z,101630.03
2022-12-27T05:33:13.859Z,101631.38
2022-12-27T05:35:40.685Z,101641.34
2022-12-27T05:38:07.622Z,101648.22
2022-12-27T05:40:34.394Z,101649.28
2022-12-27T05:43:02.736Z,101652.53
2022-12-27T05:45:29.696Z,101642.00
2022-12-27T05:47:56.415Z,101656.56
2022-12-27T05:50:22.988Z,101652.06
2022-12-27T05:52:49.549Z,101651.16
2022-12-27T05:55:16.074Z,101653.00
2022-12-27T05:57:42.631Z,101644.06
2022-12-27T06:00:11.413Z,101649.50
2022-12-27T06:02:39.322Z,101647.75
2022-12-27T06:05:06.106Z,101654.03
2022-12-27T06:07:32.727Z,101658.66
2022-12-27T06:09:59.351Z,101661.66
2022-12-27T06:12:25.739Z,101663.00
2022-12-27T06:14:52.253Z,101657.13
2022-12-27T06:17:18.648Z,101661.25
2022-12-27T06:19:45.164Z,101656.53
2022-12-27T06:22:11.850Z,101663.41
2022-12-27T06:24:38.400Z,101675.31
2022-12-27T06:27:05.086Z,101680.06
2022-12-27T06:29:31.462Z,101673.19
2022-12-27T06:31:58.074Z,101684.28
2022-12-27T06:34:24.649Z,101686.25
2022-12-27T06:36:51.540Z,101679.84
2022-12-27T06:39:18.624Z,101689.00
2022-12-27T06:41:45.071Z,101682.94
2022-12-27T06:44:11.667Z,101683.75
2022-12-27T06:46:38.370Z,101692.91
2022-12-27T06:49:04.903Z,101684.06
2022-12-27T06:51:31.262Z,101684.06
2022-12-27T06:53:57.732Z,101692.72
2022-12-27T06:56:24.124Z,101687.16
2022-12-27T06:58:51.761Z,101705.22
2022-12-27T07:01:21.155Z,101706.69
2022-12-27T07:03:53.232Z,101713.66
2022-12-27T07:06:21.136Z,101719.22
2022-12-27T07:08:49.296Z,101713.16
2022-12-27T07:11:17.231Z,101708.41
2022-12-27T07:13:46.174Z,101717.03
2022-12-27T07:16:15.413Z,101706.25
2022-12-27T07:18:42.638Z,101716.53
2022-12-27T07:21:12.068Z,101717.34
2022-12-27T07:23:38.631Z,101716.22
2022-12-27T07:26:11.036Z,101724.84
2022-12-27T07:28:38.174Z,101725.34
2022-12-27T07:31:13.654Z,101726.81
2022-12-27T07:33:41.595Z,101726.16
2022-12-27T07:36:12.474Z,101729.25
2022-12-27T07:38:39.309Z,101729.59
2022-12-27T07:41:06.130Z,101750.63
2022-12-27T07:43:33.986Z,101755.16
2022-12-27T07:46:10.595Z,101756.06
2022-12-27T07:48:37.573Z,101758.84
2022-12-27T07:51:05.333Z,101761.41
2022-12-27T07:53:32.778Z,101760.56
2022-12-27T07:55:59.729Z,101770.34
2022-12-27T07:58:26.084Z,101765.91
2022-12-27T08:00:53.396Z,101767.88
2022-12-27T08:03:19.934Z,101773.41
2022-12-27T08:05:52.577Z,101769.28
2022-12-27T08:08:22.740Z,101766.75
2022-12-27T08:10:49.539Z,101777.53
2022-12-27T08:13:16.058Z,101775.28
2022-12-27T08:15:43.773Z,101783.28
2022-12-27T08:18:10.442Z,101779.38
2022-12-27T08:20:37.196Z,101785.44
2022-12-27T08:23:04.226Z,101788.22
2022-12-27T08:25:30.976Z,101795.13
2022-12-27T08:28:08.656Z,101788.75
2022-12-27T08:30:38.784Z,101792.03
2022-12-27T08:33:05.304Z,101790.09
2022-12-27T08:35:52.098Z,101790.94
2022-12-27T08:38:18.173Z,101796.16
2022-12-27T08:40:45.522Z,101793.41
2022-12-27T08:43:12.981Z,101805.31
2022-12-27T08:45:39.665Z,101801.09
2022-12-27T08:48:07.161Z,101806.97
2022-12-27T08:50:34.099Z,101802.75
2022-12-27T08:53:03.795Z,101795.25
2022-12-27T08:55:30.954Z,101796.59
2022-12-27T08:58:02.303Z,101807.41
2022-12-27T09:00:29.754Z,101803.72
2022-12-27T09:02:56.891Z,101802.81
2022-12-27T09:05:24.837Z,101811.31
2022-12-27T09:07:51.447Z,101808.44
2022-12-27T09:10:18.331Z,101808.34
2022-12-27T09:12:46.010Z,101802.22
2022-12-27T09:15:12.804Z,101806.84
2022-12-27T09:17:40.119Z,101809.53
2022-12-27T09:20:07.897Z,101810.56
2022-12-27T09:22:35.615Z,101817.16
2022-12-27T09:25:02.095Z,101809.53
2022-12-27T09:27:28.686Z,101817.78
2022-12-27T09:29:58.607Z,101818.50
2022-12-27T09:32:27.347Z,101827.03
2022-12-27T09:34:54.514Z,101830.03
2022-12-27T09:37:21.940Z,101824.38
2022-12-27T09:39:48.677Z,101827.34
2022-12-27T09:43:04.378Z,101819.53
2022-12-27T09:45:34.230Z,101818.00
2022-12-27T09:48:02.660Z,101819.56
2022-12-27T09:50:39.692Z,101821.69
2022-12-27T09:53:21.731Z,101829.75
2022-12-27T09:55:58.099Z,101819.94
2022-12-27T09:58:45.784Z,101829.31
2022-12-27T10:01:21.708Z,101824.25
2022-12-27T10:03:51.548Z,101826.44
2022-12-27T10:06:29.312Z,101822.22
2022-12-27T10:09:18.974Z,101818.47
2022-12-27T10:12:06.144Z,101824.44
2022-12-27T10:14:44.664Z,101822.91
2022-12-27T10:17:35.042Z,101822.47
2022-12-27T10:20:01.529Z,101824.31
2022-12-27T10:22:50.186Z,101826.25
2022-12-27T10:25:21.287Z,101821.72
2022-12-27T10:27:48.417Z,101825.00
2022-12-27T10:30:18.335Z,101823.03
2022-12-27T10:32:45.442Z,101821.59
2022-12-27T10:35:16.505Z,101820.78
2022-12-27T10:37:44.440Z,101820.13
2022-12-27T10:40:27.624Z,101819.00
2022-12-27T10:43:18.365Z,101821.97
2022-12-27T10:45:45.268Z,101828.22
2022-12-27T10:48:21.041Z,101827.94
2022-12-27T10:50:52.153Z,101836.78
2022-12-27T10:53:36.374Z,101829.59
2022-12-27T10:56:12.093Z,101834.50
2022-12-27T10:58:56.523Z,101835.50
2022-12-27T11:01:28.632Z,101835.22
2022-12-27T11:04:22.199Z,101846.34
2022-12-27T11:06:52.316Z,101834.28
2022-12-27T11:09:24.974Z,101828.38
2022-12-27T11:11:51.507Z,101832.81
2022-12-27T11:14:20.561Z,101831.16
2022-12-27T11:16:48.952Z,101835.38
2022-12-27T11:19:25.790Z,101834.56
2022-12-27T11:21:55.158Z,101841.47
2022-12-27T11:24:22.563Z,101831.16
2022-12-27T11:26:58.194Z,101833.44
2022-12-27T11:29:30.668Z,101822.63
2022-12-27T11:32:03.961Z,101839.53
2022-12-27T11:34:34.156Z,101838.38
2022-12-27T11:37:13.127Z,101832.00
2022-12-27T11:39:45.105Z,101832.47
2022-12-27T11:42:38.354Z,101842.78
2022-12-27T11:45:23.644Z,101834.66
2022-12-27T11:47:54.501Z,101838.66
2022-12-27T11:50:26.931Z,101839.47
2022-12-27T11:53:38.870Z,101843.56
2022-12-27T11:56:28.405Z,101839.00
2022-12-27T11:59:30.608Z,101842.00
2022-12-27T12:02:08.129Z,101839.25
2022-12-27T12:05:07.982Z,101840.56
2022-12-27T12:07:59.104Z,101829.03
2022-12-27T12:10:48.367Z,101830.00
2022-12-27T12:13:33.001Z,101818.75
2022-12-27T12:16:05.508Z,101819.75
2022-12-27T12:18:54.010Z,101810.44
2022-12-27T12:21:59.609Z,101812.78
2022-12-27T12:25:23.424Z,101817.06
2022-12-27T12:28:55.645Z,101809.38
2022-12-27T12:31:33.178Z,101815.63
2022-12-27T12:34:21.431Z,101810.56
2022-12-27T12:37:14.205Z,101811.88
2022-12-27T12:39:48.154Z,101805.31
2022-12-27T12:42:27.161Z,101800.75
2022-12-27T12:45:09.911Z,101809.44
2022-12-27T12:48:09.329Z,101789.09
2022-12-27T12:51:16.191Z,101780.28
2022-12-27T12:53:45.551Z,101771.75
2022-12-27T12:56:42.752Z,101765.53
2022-12-27T12:59:21.423Z,101758.84
2022-12-27T13:02:29.061Z,101754.38
2022-12-27T13:05:17.326Z,101752.59
2022-12-27T13:07:52.472Z,101752.59
2022-12-27T13:10:30.971Z,101747.34
2022-12-27T13:13:02.721Z,101741.44
2022-12-27T13:16:07.780Z,101752.41
2022-12-27T13:18:56.084Z,101754.22
2022-12-27T13:21:25.515Z,101747.97
2022-12-27T13:24:13.067Z,101762.41
2022-12-27T13:26:54.636Z,101754.53
2022-12-27T13:29:36.367Z,101744.34
2022-12-27T13:32:21.650Z,101755.78
2022-12-27T13:35:28.687Z,101738.41
2022-12-27T13:38:29.789Z,101740.38
2022-12-27T13:41:12.668Z,101744.78
2022-12-27T13:44:20.544Z,101737.59
2022-12-27T13:46:57.455Z,101738.91
2022-12-27T13:49:45.673Z,101729.06
2022-12-27T13:52:35.474Z,101728.59
2022-12-27T13:55:30.329Z,101730.56
2022-12-27T13:58:21.075Z,101730.38
2022-12-27T14:01:09.064Z,101730.19
2022-12-27T14:04:14.441Z,101733.66
2022-12-27T14:06:46.830Z,101728.91
2022-12-27T14:09:25.302Z,101731.69
2022-12-27T14:12:03.074Z,101727.41
2022-12-27T14:14:31.233Z,101722.34
2022-12-27T14:17:19.452Z,101717.09
2022-12-27T14:20:04.517Z,101723.16
2022-12-27T14:23:05.339Z,101717.91
2022-12-27T14:25:45.763Z,101722.03
2022-12-27T14:28:59.734Z,101718.41
2022-12-27T14:31:52.636Z,101709.25
2022-12-27T14:34:28.175Z,101711.22
2022-12-27T14:37:14.171Z,101707.41
2022-12-27T14:40:01.688Z,101698.88
2022-12-27T14:43:06.405Z,101707.88
2022-12-27T14:45:58.146Z,101699.66
2022-12-27T14:49:15.274Z,101695.41
2022-12-27T14:52:02.643Z,101686.22
2022-12-27T14:54:55.520Z,101685.22
2022-12-27T14:57:36.717Z,101681.28
2022-12-27T15:00:17.159Z,101675.03
2022-12-27T15:02:59.816Z,101680.09
2022-12-27T15:05:45.024Z,101673.31
2022-12-27T15:08:33.352Z,101668.41
2022-12-27T15:11:08.181Z,101665.44
2022-12-27T15:13:56.367Z,101659.38
2022-12-27T15:16:36.189Z,101658.69
2022-12-27T15:20:07.232Z,101666.88
2022-12-27T15:23:00.707Z,101672.25
2022-12-27T15:25:39.162Z,101673.41
2022-12-27T15:28:24.239Z,101673.69
2022-12-27T15:31:09.672Z,101671.56
2022-12-27T15:34:11.585Z,101663.38
2022-12-27T15:36:45.546Z,101666.97
2022-12-27T15:39:33.454Z,101669.91
2022-12-27T15:42:48.284Z,101677.44
2022-12-27T15:45:46.035Z,101666.59
2022-12-27T15:48:36.593Z,101665.47
2022-12-27T15:51:30.762Z,101658.91
2022-12-27T15:54:07.281Z,101659.72
2022-12-27T15:56:46.802Z,101650.22
2022-12-27T15:59:35.616Z,101646.94
2022-12-27T16:02:17.358Z,101648.91
2022-12-27T16:04:53.596Z,101647.78
2022-12-27T16:07:42.871Z,101653.63
2022-12-27T16:10:32.617Z,101657.25
2022-12-27T16:13:05.053Z,101645.81
2022-12-27T16:15:44.612Z,101649.06
2022-12-27T16:18:17.763Z,101647.13
2022-12-27T16:21:01.999Z,101641.53
2022-12-27T16:23:35.771Z,101642.06
2022-12-27T16:26:19.749Z,101642.56
2022-12-27T16:29:12.289Z,101651.72
2022-12-27T16:31:45.829Z,101647.97
2022-12-27T16:34:20.528Z,101643.75
2022-12-27T16:36:48.377Z,101638.38
2022-12-27T16:39:32.687Z,101632.47
2022-12-27T16:42:02.648Z,101633.47
2022-12-27T16:44:51.791Z,101637.88
2022-12-27T16:47:55.954Z,101629.72
2022-12-27T16:50:40.678Z,101624.31
2022-12-27T16:53:17.491Z,101628.44
2022-12-27T16:56:09.898Z,101626.66
2022-12-27T16:58:38.393Z,101624.34
2022-12-27T17:01:50.979Z,101626.31
2022-12-27T17:04:50.126Z,101624.53
2022-12-27T17:07:47.828Z,101617.81
2022-12-27T17:10:32.786Z,101613.56
2022-12-27T17:13:11.383Z,101612.44
2022-12-27T17:15:49.276Z,101607.38
2022-12-27T17:18:45.480Z,101603.56
2022-12-27T17:21:29.823Z,101609.97
2022-12-27T17:24:01.257Z,101612.75
2022-12-27T17:27:02.426Z,101607.34
2022-12-27T17:29:31.755Z,101610.94
2022-12-27T17:32:16.899Z,101611.56
2022-12-27T17:35:15.393Z,101601.06
2022-12-27T17:38:09.839Z,101598.81
2022-12-27T17:41:01.583Z,101592.22
2022-12-27T17:44:14.619Z,101585.66
2022-12-27T17:46:59.456Z,101596.00
2022-12-27T17:49:32.046Z,101598.91
2022-12-27T17:52:19.524Z,101597.28
2022-12-27T17:55:04.859Z,101595.63
2022-12-27T17:57:50.154Z,101600.72
2022-12-27T18:00:40.364Z,101603.63
2022-12-27T18:03:11.870Z,101599.69
2022-12-27T18:05:41.920Z,101602.00
2022-12-27T18:08:17.248Z,101607.88
2022-12-27T18:10:45.754Z,101598.41
2022-12-27T18:13:17.262Z,101602.31
2022-12-27T18:15:45.481Z,101592.97
2022-12-27T18:18:18.523Z,101585.31
2022-12-27T18:20:45.096Z,101590.06
2022-12-27T18:23:11.883Z,101581.19
2022-12-27T18:25:44.322Z,101591.31
2022-12-27T18:28:33.766Z,101587.56
2022-12-27T18:31:39.449Z,101576.44
2022-12-27T18:34:14.796Z,101571.69
2022-12-27T18:36:57.653Z,101560.69
2022-12-27T18:39:36.816Z,101557.41
2022-12-27T18:42:16.624Z,101559.19
2022-12-27T18:44:47.890Z,101557.22
2022-12-27T18:47:26.885Z,101558.22
2022-12-27T18:49:58.493Z,101558.03
2022-12-27T18:52:30.941Z,101560.13
2022-12-27T18:55:17.705Z,101564.69
2022-12-27T18:57:44.224Z,101555.00
2022-12-27T19:00:26.679Z,101563.81
2022-12-27T19:03:11.840Z,101562.00
2022-12-27T19:05:38.892Z,101572.94
2022-12-27T19:08:20.209Z,101554.75
2022-12-27T19:10:49.403Z,101557.34
2022-12-27T19:13:27.769Z,101544.72
2022-12-27T19:15:56.563Z,101540.31
2022-12-27T19:18:27.540Z,101550.75
2022-12-27T19:21:01.850Z,101554.47
2022-12-27T19:23:35.730Z,101546.75
2022-12-27T19:26:17.451Z,101545.41
2022-12-27T19:28:57.172Z,101545.75
2022-12-27T19:31:24.701Z,101532.50
2022-12-27T19:33:55.659Z,101538.69
2022-12-27T19:36:32.170Z,101534.88
2022-12-27T19:38:59.992Z,101536.34
2022-12-27T19:41:27.224Z,101524.72
2022-12-27T19:43:54.705Z,101518.66
2022-12-27T19:46:27.112Z,101513.72
2022-12-27T19:49:31.823Z,101516.00
2022-12-27T19:51:43.450Z,101511.56
2022-12-27T19:54:19.537Z,101512.50
2022-12-27T19:56:46.458Z,101509.72
2022-12-27T19:59:17.833Z,101505.63
2022-12-27T20:01:48.651Z,101507.59
2022-12-27T20:04:17.416Z,101493.19
2022-12-27T20:06:47.609Z,101496.28
2022-12-27T20:09:18.448Z,101491.06
2022-12-27T20:11:45.373Z,101490.53
2022-12-27T20:14:13.221Z,101491.69
2022-12-27T20:16:40.250Z,101485.94
2022-12-27T20:19:10.797Z,101485.94
2022-12-27T20:21:41.102Z,101485.44
2022-12-27T20:24:12.042Z,101476.28
2022-12-27T20:26:40.247Z,101470.41
2022-12-27T20:29:06.787Z,101475.13
2022-12-27T20:31:33.253Z,101467.13
2022-12-27T20:33:59.745Z,101466.00
2022-12-27T20:36:26.108Z,101469.59
2022-12-27T20:38:53.010Z,101473.19
2022-12-27T20:41:20.883Z,101471.53
2022-12-27T20:43:47.559Z,101472.03
2022-12-27T20:46:16.720Z,101467.63
2022-12-27T20:48:45.147Z,101462.06
2022-12-27T20:51:14.490Z,101468.44
2022-12-27T20:53:41.134Z,101456.19
2022-12-27T20:56:08.953Z,101453.75
2022-12-27T20:58:36.399Z,101444.25
2022-12-27T21:01:11.679Z,101456.03
2022-12-27T21:03:40.185Z,101452.94
2022-12-27T21:06:08.887Z,101446.22
2022-12-27T21:08:40.463Z,101453.75
2022-12-27T21:11:17.376Z,101442.44
2022-12-27T21:13:44.716Z,101440.50
2022-12-27T21:16:26.259Z,101445.34
2022-12-27T21:18:53.276Z,101445.34
2022-12-27T21:21:27.719Z,101434.56
2022-12-27T21:23:57.017Z,101432.94
2022-12-27T21:26:28.241Z,101423.47
2022-12-27T21:28:55.437Z,101421.81
2022-12-27T21:31:22.327Z,101422.97
2022-12-27T21:33:49.543Z,101418.53
2022-12-27T21:36:19.064Z,101409.38
2022-12-27T21:38:46.282Z,101418.53
2022-12-27T21:41:15.571Z,101408.88
2022-12-27T21:43:42.752Z,101405.78
2022-12-27T21:46:13.715Z,101400.56
2022-12-27T21:48:40.467Z,101412.16
2022-12-27T21:51:12.414Z,101395.00
2022-12-27T21:53:39.483Z,101396.03
2022-12-27T21:56:06.656Z,101396.31
2022-12-27T21:58:34.813Z,101383.56
2022-12-27T22:01:08.873Z,101381.44
2022-12-27T22:03:38.233Z,101381.94
2022-12-27T22:06:15.032Z,101386.16
2022-12-27T22:08:42.962Z,101387.81
2022-12-27T22:11:09.959Z,101371.16
2022-12-27T22:13:37.402Z,101378.03
2022-12-27T22:16:06.649Z,101379.16
2022-12-27T22:18:35.496Z,101373.28
2022-12-27T22:21:04.926Z,101359.91
2022-12-27T22:23:37.680Z,101363.50
2022-12-27T22:26:05.329Z,101362.03
2022-12-27T22:28:32.205Z,101364.53
2022-12-27T22:30:58.580Z,101355.06
2022-12-27T22:33:24.969Z,101354.72
2022-12-27T22:35:51.408Z,101339.41
2022-12-27T22:38:20.120Z,101343.81
2022-12-27T22:40:47.021Z,101337.09
2022-12-27T22:43:13.825Z,101335.66
2022-12-27T22:45:42.081Z,101331.75
2022-12-27T22:48:08.645Z,101331.41
2022-12-27T22:50:37.999Z,101322.25
2022-12-27T22:53:04.625Z,101328.00
2022-12-27T22:55:30.976Z,101316.91
2022-12-27T22:57:57.358Z,101308.22
2022-12-27T23:00:23.812Z,101308.22
2022-12-27T23:02:50.667Z,101296.31
2022-12-27T23:05:17.242Z,101292.09
2022-12-27T23:08:05.219Z,101274.28
2022-12-27T23:10:30.339Z,101275.09
2022-12-27T23:12:57.006Z,101278.69
2022-12-27T23:15:23.390Z,101280.66
2022-12-27T23:17:49.767Z,101265.94
2022-12-27T23:20:16.235Z,101260.38
2022-12-27T23:22:42.622Z,101260.06
2022-12-27T23:25:09.188Z,101241.75
2022-12-27T23:27:35.696Z,101235.88
2022-12-27T23:30:02.338Z,101218.91
2022-12-27T23:32:28.669Z,101208.59
2022-12-27T23:34:55.193Z,101195.19
2022-12-27T23:37:21.731Z,101207.94
2022-12-27T23:39:48.097Z,101205.97
2022-12-27T23:42:14.414Z,101193.75
2022-12-27T23:44:40.975Z,101193.09
2022-12-27T23:47:07.615Z,101193.59
2022-12-27T23:49:34.902Z,101186.88
2022-12-27T23:52:02.995Z,101173.50
2022-12-27T23:54:29.433Z,101162.56
2022-12-27T23:56:55.861Z,101164.53
2022-12-27T23:59:22.231Z,101159.47
